sensor_id;sensor_type;location;lat;lon;timestamp;P1;durP1;ratioP1;P2;durP2;ratioP2
665;SDS011;315;48.738;9.126;2023-05-10T00:01:42;2.73;;;1.60;;
665;SDS011;315;48.738;9.126;2023-05-10T00:04:07;1.97;;;1.70;;
665;SDS011;315;48.738;9.126;2023-05-10T00:06:33;1.33;;;1.23;;
665;SDS011;315;48.738;9.126;2023-05-10T00:08:58;1.40;;;1.27;;
665;SDS011;315;48.738;9.126;2023-05-10T00:11:24;1.30;;;1.20;;
665;SDS011;315;48.738;9.126;2023-05-10T00:13:49;1.30;;;1.20;;
665;SDS011;315;48.738;9.126;2023-05-10T00:16:15;1.63;;;1.13;;
665;SDS011;315;48.738;9.126;2023-05-10T00:18:40;0.93;;;0.90;;
665;SDS011;315;48.738;9.126;2023-05-10T00:21:06;1.00;;;0.93;;
665;SDS011;315;48.738;9.126;2023-05-10T00:23:31;1.93;;;1.10;;
665;SDS011;315;48.738;9.126;2023-05-10T00:25:57;1.93;;;1.10;;
665;SDS011;315;48.738;9.126;2023-05-10T00:28:22;0.90;;;0.70;;
665;SDS011;315;48.738;9.126;2023-05-10T00:30:48;1.53;;;1.43;;
665;SDS011;315;48.738;9.126;2023-05-10T00:33:13;1.10;;;1.10;;
665;SDS011;315;48.738;9.126;2023-05-10T00:35:39;1.80;;;0.70;;
665;SDS011;315;48.738;9.126;2023-05-10T00:38:05;1.10;;;1.07;;
665;SDS011;315;48.738;9.126;2023-05-10T00:40:30;1.57;;;1.47;;
665;SDS011;315;48.738;9.126;2023-05-10T00:42:56;2.27;;;0.77;;
665;SDS011;315;48.738;9.126;2023-05-10T00:45:23;1.20;;;1.10;;
665;SDS011;315;48.738;9.126;2023-05-10T00:47:49;2.70;;;0.77;;
665;SDS011;315;48.738;9.126;2023-05-10T00:50:15;1.27;;;0.60;;
665;SDS011;315;48.738;9.126;2023-05-10T00:52:40;5.03;;;0.70;;
665;SDS011;315;48.738;9.126;2023-05-10T00:55:07;0.70;;;0.60;;
665;SDS011;315;48.738;9.126;2023-05-10T00:57:36;1.17;;;0.97;;
665;SDS011;315;48.738;9.126;2023-05-10T01:00:02;1.63;;;0.60;;
665;SDS011;315;48.738;9.126;2023-05-10T01:02:28;1.23;;;0.60;;
665;SDS011;315;48.738;9.126;2023-05-10T01:04:53;1.63;;;0.60;;
665;SDS011;315;48.738;9.126;2023-05-10T01:07:20;1.77;;;0.60;;
665;SDS011;315;48.738;9.126;2023-05-10T01:09:45;2.93;;;0.57;;
665;SDS011;315;48.738;9.126;2023-05-10T01:12:11;1.00;;;0.73;;
665;SDS011;315;48.738;9.126;2023-05-10T01:14:37;1.03;;;0.93;;
665;SDS011;315;48.738;9.126;2023-05-10T01:17:03;1.10;;;0.50;;
665;SDS011;315;48.738;9.126;2023-05-10T01:19:30;0.73;;;0.60;;
665;SDS011;315;48.738;9.126;2023-05-10T01:27:09;1.37;;;0.60;;
665;SDS011;315;48.738;9.126;2023-05-10T01:36:12;0.70;;;0.70;;
665;SDS011;315;48.738;9.126;2023-05-10T01:38:51;2.30;;;1.03;;
665;SDS011;315;48.738;9.126;2023-05-10T01:44:13;0.60;;;0.60;;
665;SDS011;315;48.738;9.126;2023-05-10T01:46:46;0.60;;;0.60;;
665;SDS011;315;48.738;9.126;2023-05-10T01:49:23;0.70;;;0.70;;
665;SDS011;315;48.738;9.126;2023-05-10T01:51:52;0.80;;;0.80;;
665;SDS011;315;48.738;9.126;2023-05-10T01:54:22;5.47;;;0.80;;
665;SDS011;315;48.738;9.126;2023-05-10T01:56:51;0.63;;;0.63;;
665;SDS011;315;48.738;9.126;2023-05-10T01:59:21;1.80;;;0.70;;
665;SDS011;315;48.738;9.126;2023-05-10T02:01:47;0.60;;;0.60;;
665;SDS011;315;48.738;9.126;2023-05-10T02:04:15;3.07;;;0.70;;
665;SDS011;315;48.738;9.126;2023-05-10T02:06:43;1.63;;;1.10;;
665;SDS011;315;48.738;9.126;2023-05-10T02:09:10;2.93;;;0.60;;
665;SDS011;315;48.738;9.126;2023-05-10T02:11:37;2.83;;;1.17;;
665;SDS011;315;48.738;9.126;2023-05-10T02:14:07;0.67;;;0.67;;
665;SDS011;315;48.738;9.126;2023-05-10T02:16:35;0.90;;;0.60;;
665;SDS011;315;48.738;9.126;2023-05-10T02:19:02;3.07;;;0.70;;
665;SDS011;315;48.738;9.126;2023-05-10T02:21:28;1.23;;;0.60;;
665;SDS011;315;48.738;9.126;2023-05-10T02:23:55;1.37;;;0.60;;
665;SDS011;315;48.738;9.126;2023-05-10T02:26:22;1.47;;;1.10;;
665;SDS011;315;48.738;9.126;2023-05-10T02:28:50;1.53;;;0.80;;
665;SDS011;315;48.738;9.126;2023-05-10T02:31:16;1.83;;;0.87;;
665;SDS011;315;48.738;9.126;2023-05-10T02:33:43;0.70;;;0.70;;
665;SDS011;315;48.738;9.126;2023-05-10T02:36:10;0.60;;;0.60;;
665;SDS011;315;48.738;9.126;2023-05-10T02:38:38;1.00;;;0.50;;
665;SDS011;315;48.738;9.126;2023-05-10T02:41:04;1.57;;;0.70;;
665;SDS011;315;48.738;9.126;2023-05-10T02:43:31;7.60;;;1.20;;
665;SDS011;315;48.738;9.126;2023-05-10T02:45:58;1.83;;;0.77;;
665;SDS011;315;48.738;9.126;2023-05-10T02:48:23;1.00;;;0.60;;
665;SDS011;315;48.738;9.126;2023-05-10T02:50:49;3.70;;;0.77;;
665;SDS011;315;48.738;9.126;2023-05-10T02:53:23;1.10;;;1.00;;
665;SDS011;315;48.738;9.126;2023-05-10T02:56:00;0.70;;;0.60;;
665;SDS011;315;48.738;9.126;2023-05-10T02:58:29;0.80;;;0.80;;
665;SDS011;315;48.738;9.126;2023-05-10T03:00:55;0.83;;;0.83;;
665;SDS011;315;48.738;9.126;2023-05-10T03:03:20;0.73;;;0.73;;
665;SDS011;315;48.738;9.126;2023-05-10T03:05:46;2.50;;;1.00;;
665;SDS011;315;48.738;9.126;2023-05-10T03:08:12;1.80;;;1.10;;
665;SDS011;315;48.738;9.126;2023-05-10T03:10:50;0.80;;;0.80;;
665;SDS011;315;48.738;9.126;2023-05-10T03:14:01;1.17;;;1.07;;
665;SDS011;315;48.738;9.126;2023-05-10T03:16:46;1.17;;;1.10;;
665;SDS011;315;48.738;9.126;2023-05-10T03:19:32;3.63;;;1.20;;
665;SDS011;315;48.738;9.126;2023-05-10T03:22:41;2.07;;;1.10;;
665;SDS011;315;48.738;9.126;2023-05-10T03:25:12;1.50;;;1.40;;
665;SDS011;315;48.738;9.126;2023-05-10T03:27:40;1.73;;;1.30;;
665;SDS011;315;48.738;9.126;2023-05-10T03:30:08;1.37;;;1.17;;
665;SDS011;315;48.738;9.126;2023-05-10T03:32:36;1.13;;;1.03;;
665;SDS011;315;48.738;9.126;2023-05-10T03:35:09;1.00;;;0.97;;
665;SDS011;315;48.738;9.126;2023-05-10T03:37:36;2.23;;;1.50;;
665;SDS011;315;48.738;9.126;2023-05-10T03:40:02;2.57;;;1.13;;
665;SDS011;315;48.738;9.126;2023-05-10T03:42:28;1.87;;;1.50;;
665;SDS011;315;48.738;9.126;2023-05-10T03:44:54;2.93;;;2.70;;
665;SDS011;315;48.738;9.126;2023-05-10T03:47:20;2.20;;;2.00;;
665;SDS011;315;48.738;9.126;2023-05-10T03:49:45;1.80;;;1.70;;
665;SDS011;315;48.738;9.126;2023-05-10T03:52:11;1.57;;;1.47;;
665;SDS011;315;48.738;9.126;2023-05-10T03:54:36;1.50;;;1.40;;
665;SDS011;315;48.738;9.126;2023-05-10T03:57:02;1.00;;;1.00;;
665;SDS011;315;48.738;9.126;2023-05-10T03:59:28;2.00;;;1.90;;
665;SDS011;315;48.738;9.126;2023-05-10T04:01:54;3.23;;;1.50;;
665;SDS011;315;48.738;9.126;2023-05-10T04:04:20;2.20;;;2.00;;
665;SDS011;315;48.738;9.126;2023-05-10T04:06:46;4.20;;;1.50;;
665;SDS011;315;48.738;9.126;2023-05-10T04:09:12;1.73;;;1.63;;
665;SDS011;315;48.738;9.126;2023-05-10T04:11:37;2.27;;;1.70;;
665;SDS011;315;48.738;9.126;2023-05-10T04:14:03;3.10;;;2.07;;
665;SDS011;315;48.738;9.126;2023-05-10T04:16:28;1.93;;;1.83;;
665;SDS011;315;48.738;9.126;2023-05-10T04:18:54;1.70;;;1.60;;
665;SDS011;315;48.738;9.126;2023-05-10T04:21:19;3.00;;;2.20;;
665;SDS011;315;48.738;9.126;2023-05-10T04:23:45;2.00;;;1.80;;
665;SDS011;315;48.738;9.126;2023-05-10T04:26:10;1.80;;;1.70;;
665;SDS011;315;48.738;9.126;2023-05-10T04:28:36;3.40;;;2.13;;
665;SDS011;315;48.738;9.126;2023-05-10T04:31:03;2.63;;;2.17;;
665;SDS011;315;48.738;9.126;2023-05-10T04:33:30;1.80;;;1.70;;
665;SDS011;315;48.738;9.126;2023-05-10T04:35:56;1.97;;;1.77;;
665;SDS011;315;48.738;9.126;2023-05-10T04:38:21;5.73;;;2.20;;
665;SDS011;315;48.738;9.126;2023-05-10T04:40:47;2.57;;;2.37;;
665;SDS011;315;48.738;9.126;2023-05-10T04:43:12;1.97;;;1.77;;
665;SDS011;315;48.738;9.126;2023-05-10T04:45:38;2.60;;;1.63;;
665;SDS011;315;48.738;9.126;2023-05-10T04:48:03;2.20;;;1.73;;
665;SDS011;315;48.738;9.126;2023-05-10T04:50:29;3.80;;;2.10;;
665;SDS011;315;48.738;9.126;2023-05-10T04:52:55;1.93;;;1.83;;
665;SDS011;315;48.738;9.126;2023-05-10T04:55:21;3.33;;;1.93;;
665;SDS011;315;48.738;9.126;2023-05-10T04:57:46;1.90;;;1.80;;
665;SDS011;315;48.738;9.126;2023-05-10T05:00:12;2.40;;;1.83;;
665;SDS011;315;48.738;9.126;2023-05-10T05:02:38;1.63;;;1.53;;
665;SDS011;315;48.738;9.126;2023-05-10T05:05:03;2.23;;;2.00;;
665;SDS011;315;48.738;9.126;2023-05-10T05:07:29;2.40;;;2.20;;
665;SDS011;315;48.738;9.126;2023-05-10T05:09:55;3.53;;;2.13;;
665;SDS011;315;48.738;9.126;2023-05-10T05:12:21;1.90;;;1.80;;
665;SDS011;315;48.738;9.126;2023-05-10T05:14:46;1.80;;;1.70;;
665;SDS011;315;48.738;9.126;2023-05-10T05:17:12;5.63;;;2.00;;
665;SDS011;315;48.738;9.126;2023-05-10T05:19:37;2.23;;;2.03;;
665;SDS011;315;48.738;9.126;2023-05-10T05:22:03;2.00;;;1.90;;
665;SDS011;315;48.738;9.126;2023-05-10T05:24:34;2.50;;;1.93;;
665;SDS011;315;48.738;9.126;2023-05-10T05:27:01;3.77;;;3.03;;
665;SDS011;315;48.738;9.126;2023-05-10T05:29:26;3.00;;;2.20;;
665;SDS011;315;48.738;9.126;2023-05-10T05:31:52;2.20;;;2.00;;
665;SDS011;315;48.738;9.126;2023-05-10T05:34:17;3.37;;;2.33;;
665;SDS011;315;48.738;9.126;2023-05-10T05:36:45;2.80;;;2.00;;
665;SDS011;315;48.738;9.126;2023-05-10T05:39:10;3.10;;;2.60;;
665;SDS011;315;48.738;9.126;2023-05-10T05:41:36;2.17;;;2.00;;
665;SDS011;315;48.738;9.126;2023-05-10T05:44:01;3.57;;;3.27;;
665;SDS011;315;48.738;9.126;2023-05-10T05:46:27;3.40;;;2.47;;
665;SDS011;315;48.738;9.126;2023-05-10T05:48:52;1.80;;;1.70;;
665;SDS011;315;48.738;9.126;2023-05-10T05:51:18;2.87;;;2.00;;
665;SDS011;315;48.738;9.126;2023-05-10T05:53:43;3.20;;;2.20;;
665;SDS011;315;48.738;9.126;2023-05-10T05:56:09;1.80;;;1.70;;
665;SDS011;315;48.738;9.126;2023-05-10T05:58:34;3.07;;;2.23;;
665;SDS011;315;48.738;9.126;2023-05-10T06:01:00;2.53;;;2.33;;
665;SDS011;315;48.738;9.126;2023-05-10T06:03:26;3.07;;;2.23;;
665;SDS011;315;48.738;9.126;2023-05-10T06:05:51;5.07;;;4.10;;
665;SDS011;315;48.738;9.126;2023-05-10T06:08:17;5.20;;;3.57;;
665;SDS011;315;48.738;9.126;2023-05-10T06:10:42;3.50;;;3.20;;
665;SDS011;315;48.738;9.126;2023-05-10T06:13:08;2.73;;;2.43;;
665;SDS011;315;48.738;9.126;2023-05-10T06:15:34;3.07;;;2.80;;
665;SDS011;315;48.738;9.126;2023-05-10T06:17:59;2.60;;;2.40;;
665;SDS011;315;48.738;9.126;2023-05-10T06:20:25;3.27;;;2.40;;
665;SDS011;315;48.738;9.126;2023-05-10T06:22:50;2.97;;;2.10;;
665;SDS011;315;48.738;9.126;2023-05-10T06:25:16;3.50;;;3.20;;
665;SDS011;315;48.738;9.126;2023-05-10T06:27:42;6.13;;;2.20;;
665;SDS011;315;48.738;9.126;2023-05-10T06:30:08;1.93;;;1.83;;
665;SDS011;315;48.738;9.126;2023-05-10T06:32:35;4.73;;;4.30;;
665;SDS011;315;48.738;9.126;2023-05-10T06:35:00;8.60;;;3.70;;
665;SDS011;315;48.738;9.126;2023-05-10T06:37:26;4.00;;;2.57;;
665;SDS011;315;48.738;9.126;2023-05-10T06:39:51;6.77;;;5.37;;
665;SDS011;315;48.738;9.126;2023-05-10T06:42:17;3.03;;;2.70;;
665;SDS011;315;48.738;9.126;2023-05-10T06:44:42;2.50;;;2.30;;
665;SDS011;315;48.738;9.126;2023-05-10T06:47:08;3.07;;;2.80;;
665;SDS011;315;48.738;9.126;2023-05-10T06:49:34;2.70;;;2.50;;
665;SDS011;315;48.738;9.126;2023-05-10T06:51:59;6.53;;;2.70;;
665;SDS011;315;48.738;9.126;2023-05-10T06:54:25;4.83;;;3.40;;
665;SDS011;315;48.738;9.126;2023-05-10T06:56:50;3.13;;;2.87;;
665;SDS011;315;48.738;9.126;2023-05-10T06:59:16;3.53;;;2.90;;
665;SDS011;315;48.738;9.126;2023-05-10T07:01:44;2.70;;;2.37;;
665;SDS011;315;48.738;9.126;2023-05-10T07:04:09;5.70;;;2.70;;
665;SDS011;315;48.738;9.126;2023-05-10T07:06:35;2.47;;;2.27;;
665;SDS011;315;48.738;9.126;2023-05-10T07:09:00;2.10;;;2.00;;
665;SDS011;315;48.738;9.126;2023-05-10T07:11:26;3.93;;;2.20;;
665;SDS011;315;48.738;9.126;2023-05-10T07:13:51;2.60;;;2.40;;
665;SDS011;315;48.738;9.126;2023-05-10T07:16:17;3.73;;;2.03;;
665;SDS011;315;48.738;9.126;2023-05-10T07:18:43;2.00;;;1.90;;
665;SDS011;315;48.738;9.126;2023-05-10T07:21:08;2.60;;;2.40;;
665;SDS011;315;48.738;9.126;2023-05-10T07:23:34;2.67;;;2.47;;
665;SDS011;315;48.738;9.126;2023-05-10T07:25:59;2.80;;;2.60;;
665;SDS011;315;48.738;9.126;2023-05-10T07:28:25;2.63;;;2.43;;
665;SDS011;315;48.738;9.126;2023-05-10T07:30:50;2.50;;;1.73;;
665;SDS011;315;48.738;9.126;2023-05-10T07:33:16;2.83;;;2.10;;
665;SDS011;315;48.738;9.126;2023-05-10T07:35:42;3.07;;;2.30;;
665;SDS011;315;48.738;9.126;2023-05-10T07:38:08;7.30;;;2.20;;
665;SDS011;315;48.738;9.126;2023-05-10T07:40:35;2.97;;;2.00;;
665;SDS011;315;48.738;9.126;2023-05-10T07:43:01;1.67;;;1.57;;
665;SDS011;315;48.738;9.126;2023-05-10T07:45:27;1.63;;;1.53;;
665;SDS011;315;48.738;9.126;2023-05-10T07:47:53;2.17;;;1.60;;
665;SDS011;315;48.738;9.126;2023-05-10T07:50:18;4.70;;;2.23;;
665;SDS011;315;48.738;9.126;2023-05-10T07:52:44;3.07;;;2.53;;
665;SDS011;315;48.738;9.126;2023-05-10T07:55:09;3.67;;;2.70;;
665;SDS011;315;48.738;9.126;2023-05-10T07:57:35;2.23;;;1.70;;
665;SDS011;315;48.738;9.126;2023-05-10T08:00:01;1.67;;;1.50;;
665;SDS011;315;48.738;9.126;2023-05-10T08:02:27;1.73;;;1.20;;
665;SDS011;315;48.738;9.126;2023-05-10T08:04:53;1.60;;;1.50;;
665;SDS011;315;48.738;9.126;2023-05-10T08:07:18;2.23;;;1.70;;
665;SDS011;315;48.738;9.126;2023-05-10T08:09:44;1.80;;;1.70;;
665;SDS011;315;48.738;9.126;2023-05-10T08:12:09;4.73;;;2.20;;
665;SDS011;315;48.738;9.126;2023-05-10T08:14:35;4.40;;;1.40;;
665;SDS011;315;48.738;9.126;2023-05-10T08:17:03;2.50;;;1.27;;
665;SDS011;315;48.738;9.126;2023-05-10T08:19:29;1.27;;;1.10;;
665;SDS011;315;48.738;9.126;2023-05-10T08:21:54;3.63;;;1.97;;
665;SDS011;315;48.738;9.126;2023-05-10T08:24:20;1.50;;;1.40;;
665;SDS011;315;48.738;9.126;2023-05-10T08:26:46;1.50;;;1.40;;
665;SDS011;315;48.738;9.126;2023-05-10T08:29:12;1.50;;;1.23;;
665;SDS011;315;48.738;9.126;2023-05-10T08:31:38;1.57;;;1.47;;
665;SDS011;315;48.738;9.126;2023-05-10T08:34:04;1.70;;;1.60;;
665;SDS011;315;48.738;9.126;2023-05-10T08:36:29;1.43;;;1.33;;
665;SDS011;315;48.738;9.126;2023-05-10T08:38:56;4.00;;;3.40;;
665;SDS011;315;48.738;9.126;2023-05-10T08:41:23;1.30;;;1.20;;
665;SDS011;315;48.738;9.126;2023-05-10T08:43:51;1.47;;;1.20;;
665;SDS011;315;48.738;9.126;2023-05-10T08:46:18;1.30;;;1.20;;
665;SDS011;315;48.738;9.126;2023-05-10T08:48:45;2.60;;;1.40;;
665;SDS011;315;48.738;9.126;2023-05-10T08:51:13;1.80;;;1.63;;
665;SDS011;315;48.738;9.126;2023-05-10T08:53:44;1.53;;;1.47;;
665;SDS011;315;48.738;9.126;2023-05-10T08:56:10;1.30;;;1.20;;
665;SDS011;315;48.738;9.126;2023-05-10T08:58:36;2.27;;;1.50;;
665;SDS011;315;48.738;9.126;2023-05-10T09:01:03;1.60;;;1.50;;
665;SDS011;315;48.738;9.126;2023-05-10T09:03:29;1.20;;;1.10;;
665;SDS011;315;48.738;9.126;2023-05-10T09:05:55;2.57;;;1.20;;
665;SDS011;315;48.738;9.126;2023-05-10T09:08:22;1.33;;;1.23;;
665;SDS011;315;48.738;9.126;2023-05-10T09:10:51;1.67;;;1.57;;
665;SDS011;315;48.738;9.126;2023-05-10T09:13:18;1.93;;;1.47;;
665;SDS011;315;48.738;9.126;2023-05-10T09:15:44;1.10;;;1.10;;
665;SDS011;315;48.738;9.126;2023-05-10T09:18:10;1.53;;;0.90;;
665;SDS011;315;48.738;9.126;2023-05-10T09:20:36;2.80;;;1.10;;
665;SDS011;315;48.738;9.126;2023-05-10T09:23:02;1.60;;;1.00;;
665;SDS011;315;48.738;9.126;2023-05-10T09:25:27;0.80;;;0.80;;
665;SDS011;315;48.738;9.126;2023-05-10T09:27:53;1.40;;;0.90;;
665;SDS011;315;48.738;9.126;2023-05-10T09:30:26;1.33;;;1.23;;
665;SDS011;315;48.738;9.126;2023-05-10T09:32:53;1.40;;;1.30;;
665;SDS011;315;48.738;9.126;2023-05-10T09:35:20;1.17;;;1.07;;
665;SDS011;315;48.738;9.126;2023-05-10T09:37:49;1.20;;;1.10;;
665;SDS011;315;48.738;9.126;2023-05-10T09:40:17;4.43;;;1.60;;
665;SDS011;315;48.738;9.126;2023-05-10T09:45:26;1.30;;;1.20;;
665;SDS011;315;48.738;9.126;2023-05-10T09:47:56;2.97;;;1.07;;
665;SDS011;315;48.738;9.126;2023-05-10T09:50:23;1.10;;;1.00;;
665;SDS011;315;48.738;9.126;2023-05-10T09:52:53;2.07;;;1.17;;
665;SDS011;315;48.738;9.126;2023-05-10T09:55:26;1.27;;;0.90;;
665;SDS011;315;48.738;9.126;2023-05-10T09:58:10;2.70;;;1.23;;
665;SDS011;315;48.738;9.126;2023-05-10T10:00:37;0.90;;;0.90;;
665;SDS011;315;48.738;9.126;2023-05-10T10:03:05;1.00;;;0.70;;
665;SDS011;315;48.738;9.126;2023-05-10T10:05:32;2.10;;;1.03;;
665;SDS011;315;48.738;9.126;2023-05-10T10:07:59;4.20;;;1.10;;
665;SDS011;315;48.738;9.126;2023-05-10T10:10:26;0.97;;;0.97;;
665;SDS011;315;48.738;9.126;2023-05-10T10:12:53;1.97;;;1.13;;
665;SDS011;315;48.738;9.126;2023-05-10T10:15:20;4.23;;;0.80;;
665;SDS011;315;48.738;9.126;2023-05-10T10:17:46;1.03;;;0.93;;
665;SDS011;315;48.738;9.126;2023-05-10T10:20:12;1.57;;;1.20;;
665;SDS011;315;48.738;9.126;2023-05-10T10:22:39;1.20;;;1.10;;
665;SDS011;315;48.738;9.126;2023-05-10T10:25:04;2.83;;;2.63;;
665;SDS011;315;48.738;9.126;2023-05-10T10:27:36;2.03;;;1.20;;
665;SDS011;315;48.738;9.126;2023-05-10T10:35:55;1.40;;;0.97;;
665;SDS011;315;48.738;9.126;2023-05-10T10:38:24;4.40;;;1.33;;
665;SDS011;315;48.738;9.126;2023-05-10T10:41:01;1.67;;;1.33;;
665;SDS011;315;48.738;9.126;2023-05-10T10:43:28;1.03;;;1.00;;
665;SDS011;315;48.738;9.126;2023-05-10T10:46:13;3.70;;;1.13;;
665;SDS011;315;48.738;9.126;2023-05-10T10:48:49;2.83;;;1.10;;
665;SDS011;315;48.738;9.126;2023-05-10T10:51:32;1.00;;;1.00;;
665;SDS011;315;48.738;9.126;2023-05-10T10:54:08;1.23;;;1.13;;
665;SDS011;315;48.738;9.126;2023-05-10T10:56:35;1.10;;;0.90;;
665;SDS011;315;48.738;9.126;2023-05-10T10:59:00;0.97;;;0.87;;
665;SDS011;315;48.738;9.126;2023-05-10T11:01:26;1.10;;;1.00;;
665;SDS011;315;48.738;9.126;2023-05-10T11:08:59;1.63;;;1.53;;
665;SDS011;315;48.738;9.126;2023-05-10T11:11:31;1.23;;;1.13;;
665;SDS011;315;48.738;9.126;2023-05-10T11:14:02;1.40;;;1.00;;
665;SDS011;315;48.738;9.126;2023-05-10T11:16:29;3.50;;;1.00;;
665;SDS011;315;48.738;9.126;2023-05-10T11:19:10;2.40;;;1.20;;
665;SDS011;315;48.738;9.126;2023-05-10T11:21:49;1.50;;;1.33;;
665;SDS011;315;48.738;9.126;2023-05-10T11:24:18;1.13;;;0.90;;
665;SDS011;315;48.738;9.126;2023-05-10T11:26:44;1.33;;;1.23;;
665;SDS011;315;48.738;9.126;2023-05-10T11:29:12;1.10;;;1.00;;
665;SDS011;315;48.738;9.126;2023-05-10T11:31:44;1.10;;;1.10;;
665;SDS011;315;48.738;9.126;2023-05-10T11:34:11;2.03;;;0.80;;
665;SDS011;315;48.738;9.126;2023-05-10T11:36:50;0.90;;;0.90;;
665;SDS011;315;48.738;9.126;2023-05-10T11:39:18;4.40;;;0.90;;
665;SDS011;315;48.738;9.126;2023-05-10T11:41:44;1.30;;;1.20;;
665;SDS011;315;48.738;9.126;2023-05-10T11:44:13;2.07;;;1.10;;
665;SDS011;315;48.738;9.126;2023-05-10T11:46:39;4.07;;;1.90;;
665;SDS011;315;48.738;9.126;2023-05-10T11:49:04;1.53;;;1.00;;
665;SDS011;315;48.738;9.126;2023-05-10T11:51:33;1.10;;;1.10;;
665;SDS011;315;48.738;9.126;2023-05-10T11:54:05;1.47;;;1.37;;
665;SDS011;315;48.738;9.126;2023-05-10T11:56:34;1.07;;;1.07;;
665;SDS011;315;48.738;9.126;2023-05-10T11:59:01;1.43;;;1.10;;
665;SDS011;315;48.738;9.126;2023-05-10T12:01:27;2.07;;;1.13;;
665;SDS011;315;48.738;9.126;2023-05-10T12:03:54;1.30;;;1.20;;
665;SDS011;315;48.738;9.126;2023-05-10T12:06:25;1.30;;;1.20;;
665;SDS011;315;48.738;9.126;2023-05-10T12:08:52;2.10;;;1.20;;
665;SDS011;315;48.738;9.126;2023-05-10T12:11:18;3.17;;;1.10;;
665;SDS011;315;48.738;9.126;2023-05-10T12:13:45;1.33;;;1.23;;
665;SDS011;315;48.738;9.126;2023-05-10T12:16:21;2.20;;;1.30;;
665;SDS011;315;48.738;9.126;2023-05-10T12:18:48;2.40;;;1.40;;
665;SDS011;315;48.738;9.126;2023-05-10T12:21:16;1.03;;;1.00;;
665;SDS011;315;48.738;9.126;2023-05-10T12:23:42;4.40;;;1.60;;
665;SDS011;315;48.738;9.126;2023-05-10T12:26:10;1.97;;;1.40;;
665;SDS011;315;48.738;9.126;2023-05-10T12:28:36;1.60;;;1.30;;
665;SDS011;315;48.738;9.126;2023-05-10T12:31:02;1.60;;;1.30;;
665;SDS011;315;48.738;9.126;2023-05-10T12:33:35;2.80;;;1.50;;
665;SDS011;315;48.738;9.126;2023-05-10T12:36:04;2.40;;;1.20;;
665;SDS011;315;48.738;9.126;2023-05-10T12:38:40;1.20;;;1.10;;
665;SDS011;315;48.738;9.126;2023-05-10T12:41:14;1.93;;;1.43;;
665;SDS011;315;48.738;9.126;2023-05-10T12:43:41;2.00;;;1.30;;
665;SDS011;315;48.738;9.126;2023-05-10T12:46:07;1.17;;;1.07;;
665;SDS011;315;48.738;9.126;2023-05-10T12:48:34;1.80;;;1.47;;
665;SDS011;315;48.738;9.126;2023-05-10T12:51:00;3.90;;;1.40;;
665;SDS011;315;48.738;9.126;2023-05-10T12:53:27;3.30;;;1.53;;
665;SDS011;315;48.738;9.126;2023-05-10T12:55:52;2.20;;;1.50;;
665;SDS011;315;48.738;9.126;2023-05-10T12:58:18;4.33;;;1.47;;
665;SDS011;315;48.738;9.126;2023-05-10T13:00:44;2.30;;;1.70;;
665;SDS011;315;48.738;9.126;2023-05-10T13:03:10;4.50;;;1.33;;
665;SDS011;315;48.738;9.126;2023-05-10T13:05:36;5.50;;;1.37;;
665;SDS011;315;48.738;9.126;2023-05-10T13:08:01;1.97;;;1.80;;
665;SDS011;315;48.738;9.126;2023-05-10T13:10:29;1.40;;;1.30;;
665;SDS011;315;48.738;9.126;2023-05-10T13:12:55;1.53;;;1.43;;
665;SDS011;315;48.738;9.126;2023-05-10T13:15:21;2.30;;;1.30;;
665;SDS011;315;48.738;9.126;2023-05-10T13:17:47;1.63;;;1.43;;
665;SDS011;315;48.738;9.126;2023-05-10T13:20:12;1.37;;;1.20;;
665;SDS011;315;48.738;9.126;2023-05-10T13:22:38;1.70;;;1.40;;
665;SDS011;315;48.738;9.126;2023-05-10T13:25:03;2.70;;;1.73;;
665;SDS011;315;48.738;9.126;2023-05-10T13:27:29;2.10;;;1.37;;
665;SDS011;315;48.738;9.126;2023-05-10T13:29:55;1.93;;;1.07;;
665;SDS011;315;48.738;9.126;2023-05-10T13:32:20;4.53;;;1.20;;
665;SDS011;315;48.738;9.126;2023-05-10T13:34:46;1.37;;;1.27;;
665;SDS011;315;48.738;9.126;2023-05-10T13:37:11;2.30;;;1.30;;
665;SDS011;315;48.738;9.126;2023-05-10T13:39:37;2.33;;;1.40;;
665;SDS011;315;48.738;9.126;2023-05-10T13:42:03;1.77;;;1.43;;
665;SDS011;315;48.738;9.126;2023-05-10T13:44:29;2.07;;;1.50;;
665;SDS011;315;48.738;9.126;2023-05-10T13:46:55;2.57;;;1.33;;
665;SDS011;315;48.738;9.126;2023-05-10T13:49:21;1.70;;;1.60;;
665;SDS011;315;48.738;9.126;2023-05-10T13:51:47;2.50;;;1.47;;
665;SDS011;315;48.738;9.126;2023-05-10T13:54:12;2.07;;;1.50;;
665;SDS011;315;48.738;9.126;2023-05-10T13:56:38;1.53;;;1.43;;
665;SDS011;315;48.738;9.126;2023-05-10T13:59:05;1.50;;;1.20;;
665;SDS011;315;48.738;9.126;2023-05-10T14:01:30;2.20;;;1.67;;
665;SDS011;315;48.738;9.126;2023-05-10T14:03:56;2.20;;;1.30;;
665;SDS011;315;48.738;9.126;2023-05-10T14:06:22;2.60;;;1.30;;
665;SDS011;315;48.738;9.126;2023-05-10T14:08:47;1.40;;;1.30;;
665;SDS011;315;48.738;9.126;2023-05-10T14:11:14;2.30;;;1.87;;
665;SDS011;315;48.738;9.126;2023-05-10T14:13:40;2.00;;;1.80;;
665;SDS011;315;48.738;9.126;2023-05-10T14:16:05;2.00;;;1.80;;
665;SDS011;315;48.738;9.126;2023-05-10T14:18:31;2.30;;;2.07;;
665;SDS011;315;48.738;9.126;2023-05-10T14:20:57;1.73;;;1.63;;
665;SDS011;315;48.738;9.126;2023-05-10T14:23:22;1.30;;;1.20;;
665;SDS011;315;48.738;9.126;2023-05-10T14:25:53;3.03;;;1.87;;
665;SDS011;315;48.738;9.126;2023-05-10T14:28:19;1.90;;;1.50;;
665;SDS011;315;48.738;9.126;2023-05-10T14:30:45;1.87;;;1.37;;
665;SDS011;315;48.738;9.126;2023-05-10T14:33:11;1.73;;;1.37;;
665;SDS011;315;48.738;9.126;2023-05-10T14:35:37;2.43;;;1.60;;
665;SDS011;315;48.738;9.126;2023-05-10T14:38:03;1.63;;;1.50;;
665;SDS011;315;48.738;9.126;2023-05-10T14:40:28;1.50;;;1.40;;
665;SDS011;315;48.738;9.126;2023-05-10T14:42:54;1.50;;;1.40;;
665;SDS011;315;48.738;9.126;2023-05-10T14:45:21;1.73;;;1.60;;
665;SDS011;315;48.738;9.126;2023-05-10T14:47:47;2.70;;;1.60;;
665;SDS011;315;48.738;9.126;2023-05-10T14:50:13;1.40;;;1.30;;
665;SDS011;315;48.738;9.126;2023-05-10T14:52:38;1.77;;;1.63;;
665;SDS011;315;48.738;9.126;2023-05-10T14:55:04;5.60;;;1.60;;
665;SDS011;315;48.738;9.126;2023-05-10T14:57:30;1.43;;;1.33;;
665;SDS011;315;48.738;9.126;2023-05-10T14:59:56;5.03;;;2.70;;
665;SDS011;315;48.738;9.126;2023-05-10T15:02:21;2.07;;;1.40;;
665;SDS011;315;48.738;9.126;2023-05-10T15:04:47;1.37;;;1.27;;
665;SDS011;315;48.738;9.126;2023-05-10T15:07:12;2.73;;;1.73;;
665;SDS011;315;48.738;9.126;2023-05-10T15:09:40;2.10;;;1.60;;
665;SDS011;315;48.738;9.126;2023-05-10T15:12:06;1.90;;;1.30;;
665;SDS011;315;48.738;9.126;2023-05-10T15:14:31;4.20;;;1.70;;
665;SDS011;315;48.738;9.126;2023-05-10T15:16:57;3.27;;;1.63;;
665;SDS011;315;48.738;9.126;2023-05-10T15:19:23;3.93;;;1.70;;
665;SDS011;315;48.738;9.126;2023-05-10T15:21:49;2.10;;;1.27;;
665;SDS011;315;48.738;9.126;2023-05-10T15:24:14;2.23;;;1.43;;
665;SDS011;315;48.738;9.126;2023-05-10T15:26:40;1.50;;;1.40;;
665;SDS011;315;48.738;9.126;2023-05-10T15:29:06;1.30;;;1.20;;
665;SDS011;315;48.738;9.126;2023-05-10T15:31:31;1.70;;;1.53;;
665;SDS011;315;48.738;9.126;2023-05-10T15:33:59;3.33;;;1.47;;
665;SDS011;315;48.738;9.126;2023-05-10T15:36:25;1.53;;;1.43;;
665;SDS011;315;48.738;9.126;2023-05-10T15:38:51;1.30;;;1.20;;
665;SDS011;315;48.738;9.126;2023-05-10T15:41:18;2.43;;;1.20;;
665;SDS011;315;48.738;9.126;2023-05-10T15:43:43;1.63;;;1.30;;
665;SDS011;315;48.738;9.126;2023-05-10T15:46:09;1.60;;;1.50;;
665;SDS011;315;48.738;9.126;2023-05-10T15:48:34;1.23;;;1.00;;
665;SDS011;315;48.738;9.126;2023-05-10T15:51:00;3.17;;;1.50;;
665;SDS011;315;48.738;9.126;2023-05-10T15:53:26;2.60;;;1.47;;
665;SDS011;315;48.738;9.126;2023-05-10T15:55:51;1.30;;;1.20;;
665;SDS011;315;48.738;9.126;2023-05-10T15:58:17;3.13;;;1.07;;
665;SDS011;315;48.738;9.126;2023-05-10T16:00:43;1.83;;;1.30;;
665;SDS011;315;48.738;9.126;2023-05-10T16:03:08;1.40;;;0.90;;
665;SDS011;315;48.738;9.126;2023-05-10T16:05:34;1.67;;;1.10;;
665;SDS011;315;48.738;9.126;2023-05-10T16:08:00;4.13;;;2.60;;
665;SDS011;315;48.738;9.126;2023-05-10T16:10:26;0.90;;;0.80;;
665;SDS011;315;48.738;9.126;2023-05-10T16:12:52;1.10;;;1.10;;